createdAt,value
2022-09-05T00:06:34.151Z,2.00
2022-09-05T00:07:59.183Z,0.43
2022-09-05T00:08:42.151Z,1.50
2022-09-05T00:09:45.423Z,1.29
2022-09-05T00:11:39.714Z,0.86
2022-09-05T00:11:53.238Z,2.12
2022-09-05T00:13:07.042Z,1.57
2022-09-05T00:14:01.153Z,1.00
2022-09-05T00:15:16.056Z,0.29
2022-09-05T00:16:09.053Z,0.50
2022-09-05T00:17:12.527Z,0.33
2022-09-05T00:23:47.105Z,1.86
2022-09-05T00:24:18.755Z,2.00
2022-09-05T00:24:19.487Z,1.00
2022-09-05T00:24:25.190Z,1.50
2022-09-05T00:24:32.276Z,1.87
2022-09-05T00:24:35.279Z,1.50
2022-09-05T00:25:00.767Z,1.12
2022-09-05T00:25:47.094Z,1.50
2022-09-05T00:28:26.887Z,0.25
2022-09-05T00:29:14.877Z,0.00
2022-09-05T00:31:08.909Z,2.00
2022-09-05T00:31:53.448Z,2.50
2022-09-05T00:32:26.897Z,0.62
2022-09-05T00:33:30.261Z,0.00
2022-09-05T00:34:46.493Z,0.86
2022-09-05T00:35:38.062Z,2.00
2022-09-05T00:36:41.340Z,1.57
2022-09-05T00:37:44.629Z,1.86
2022-09-05T00:38:47.904Z,2.29
2022-09-05T00:40:05.559Z,2.14
2022-09-05T00:40:55.498Z,0.75
2022-09-05T00:41:58.988Z,0.00
2022-09-05T00:43:02.686Z,0.71
2022-09-05T00:44:05.829Z,1.57
2022-09-05T00:45:14.480Z,0.57
2022-09-05T00:46:13.355Z,0.00
2022-09-05T00:47:16.551Z,1.33
2022-09-05T00:48:19.726Z,1.43
2022-09-05T00:49:23.133Z,1.43
2022-09-05T00:50:26.396Z,1.57
2022-09-05T00:51:34.969Z,0.57
2022-09-05T00:52:34.169Z,1.00
2022-09-05T00:53:37.755Z,1.29
2022-09-05T00:54:41.875Z,0.86
2022-09-05T00:57:04.348Z,0.13
2022-09-05T00:58:07.503Z,0.00
2022-09-05T00:59:10.894Z,0.57
2022-09-05T01:00:17.306Z,1.00
2022-09-05T01:01:21.131Z,0.50
2022-09-05T01:02:23.105Z,0.75
2022-09-05T01:03:26.468Z,0.14
2022-09-05T01:04:29.773Z,0.86
2022-09-05T01:05:33.058Z,2.00
2022-09-05T01:06:36.337Z,1.57
2022-09-05T01:07:42.466Z,1.43
2022-09-05T01:08:44.036Z,1.00
2022-09-05T01:09:47.189Z,1.29
2022-09-05T01:10:50.495Z,1.00
2022-09-05T01:11:53.784Z,1.57
2022-09-05T01:12:57.068Z,1.29
2022-09-05T01:14:00.248Z,2.00
2022-09-05T01:15:03.744Z,1.57
2022-09-05T01:16:07.047Z,1.00
2022-09-05T01:17:10.196Z,1.00
2022-09-05T01:18:13.488Z,1.43
2022-09-05T01:19:16.773Z,1.86
2022-09-05T01:20:20.532Z,1.00
2022-09-05T01:21:24.062Z,1.00
2022-09-05T01:22:27.446Z,1.00
2022-09-05T01:23:30.733Z,1.00
2022-09-05T01:24:34.011Z,1.43
2022-09-05T01:25:37.293Z,1.14
2022-09-05T01:26:41.616Z,1.00
2022-09-05T01:29:14.328Z,1.57
2022-09-05T01:29:17.165Z,0.50
2022-09-05T01:29:53.609Z,0.50
2022-09-05T01:30:56.754Z,0.57
2022-09-05T01:32:00.064Z,0.43
2022-09-05T01:33:06.094Z,0.57
2022-09-05T01:34:07.772Z,0.00
2022-09-05T01:35:11.277Z,0.43
2022-09-05T01:36:14.542Z,0.57
2022-09-05T01:37:33.748Z,0.00
2022-09-05T01:38:22.443Z,0.00
2022-09-05T01:40:11.890Z,1.29
2022-09-05T01:40:29.958Z,1.87
2022-09-05T01:41:33.134Z,1.57
2022-09-05T01:42:36.290Z,0.57
2022-09-05T01:43:39.475Z,0.00
2022-09-05T01:44:42.657Z,0.43
2022-09-05T01:45:46.248Z,0.57
2022-09-05T01:46:50.245Z,0.50
2022-09-05T01:47:54.457Z,1.00
2022-09-05T01:48:58.765Z,1.00
2022-09-05T01:50:02.232Z,0.29
2022-09-05T01:51:07.477Z,0.00
2022-09-05T01:52:09.696Z,0.00
2022-09-05T01:53:13.008Z,0.00
2022-09-05T01:54:23.839Z,1.00
2022-09-05T01:55:20.622Z,0.88
2022-09-05T01:56:23.891Z,0.57
2022-09-05T01:57:26.949Z,0.00
2022-09-05T01:58:29.959Z,0.00
2022-09-05T01:59:34.474Z,0.37
2022-09-05T02:00:37.961Z,0.57
2022-09-05T02:08:20.657Z,1.00
2022-09-05T02:09:24.003Z,0.86
2022-09-05T02:10:27.234Z,1.43
2022-09-05T02:11:35.640Z,0.00
2022-09-05T02:12:35.190Z,0.88
2022-09-05T02:13:38.781Z,2.00
2022-09-05T02:14:41.957Z,1.14
2022-09-05T02:15:52.490Z,0.43
2022-09-05T02:16:50.169Z,1.50
2022-09-05T02:17:53.758Z,2.00
2022-09-05T02:18:57.311Z,1.57
2022-09-05T02:20:00.641Z,1.86
2022-09-05T02:21:03.978Z,2.14
2022-09-05T02:22:07.101Z,1.00
2022-09-05T02:23:35.162Z,0.67
2022-09-05T02:24:14.895Z,0.00
2022-09-05T02:26:01.463Z,0.43
2022-09-05T02:26:22.792Z,1.62
2022-09-05T02:27:53.489Z,0.43
2022-09-05T02:28:30.487Z,0.50
2022-09-05T02:29:33.534Z,0.86
2022-09-05T02:30:36.811Z,1.14
2022-09-05T02:31:41.096Z,0.50
2022-09-05T02:32:44.239Z,1.00
2022-09-05T02:33:47.522Z,1.14
2022-09-05T02:34:50.807Z,0.86
2022-09-05T02:35:53.989Z,1.57
2022-09-05T02:36:57.282Z,1.00
2022-09-05T02:41:18.794Z,0.71
2022-09-05T02:45:02.464Z,1.50
2022-09-05T02:45:02.628Z,1.12
2022-09-05T02:45:10.271Z,0.50
2022-09-05T02:45:11.901Z,0.62
2022-09-05T02:45:16.343Z,0.13
2022-09-05T02:45:20.340Z,0.50
2022-09-05T02:45:47.244Z,0.50
2022-09-05T02:46:50.974Z,1.00
2022-09-05T02:47:54.300Z,0.71
2022-09-05T02:48:57.521Z,0.57
2022-09-05T02:52:46.201Z,0.00
2022-09-05T02:54:41.551Z,0.00
2022-09-05T02:57:27.055Z,0.50
2022-09-05T02:57:27.121Z,0.50
2022-09-05T02:57:33.188Z,1.00
2022-09-05T02:57:35.598Z,1.00
2022-09-05T02:57:40.445Z,0.89
2022-09-05T02:58:05.875Z,0.00
2022-09-05T02:58:59.345Z,0.50
2022-09-05T02:59:40.234Z,0.50
2022-09-05T03:00:43.503Z,0.00
2022-09-05T03:01:46.745Z,0.00
2022-09-05T03:02:49.914Z,1.29
2022-09-05T03:03:53.070Z,2.14
2022-09-05T03:06:35.131Z,0.00
2022-09-05T03:07:35.589Z,0.50
2022-09-05T03:08:39.388Z,1.00
2022-09-05T03:09:42.782Z,1.50
2022-09-05T03:10:54.269Z,1.57
2022-09-05T03:11:56.712Z,0.88
2022-09-05T03:13:01.019Z,0.00
2022-09-05T03:14:16.490Z,0.71
2022-09-05T03:15:23.360Z,0.75
2022-09-05T03:16:32.721Z,1.00
2022-09-05T03:17:37.401Z,0.50
2022-09-05T03:18:43.554Z,0.43
2022-09-05T03:19:47.143Z,0.50
2022-09-05T03:20:50.528Z,1.00
2022-09-05T03:21:54.216Z,0.71
2022-09-05T03:22:57.817Z,0.86
2022-09-05T03:24:01.610Z,1.14
2022-09-05T03:25:04.862Z,1.00
2022-09-05T03:26:09.008Z,0.00
2022-09-05T03:27:12.794Z,0.13
2022-09-05T03:28:16.386Z,0.43
2022-09-05T03:29:20.084Z,1.00
2022-09-05T03:30:23.329Z,1.00
2022-09-05T03:31:26.587Z,1.43
2022-09-05T03:32:29.729Z,2.29
2022-09-05T03:33:33.213Z,1.86
2022-09-05T03:34:36.822Z,1.00
2022-09-05T03:35:40.413Z,0.71
2022-09-05T03:36:43.992Z,0.43
2022-09-05T03:37:47.484Z,1.14
2022-09-05T03:38:50.974Z,1.57
2022-09-05T03:39:54.406Z,0.67
2022-09-05T03:40:57.702Z,0.86
2022-09-05T03:42:01.127Z,1.14
2022-09-05T03:43:04.846Z,0.86
2022-09-05T03:44:08.160Z,2.00
2022-09-05T03:45:11.801Z,1.00
2022-09-05T03:46:15.006Z,0.57
2022-09-05T03:47:18.368Z,0.43
2022-09-05T03:48:28.594Z,0.57
2022-09-05T03:53:28.045Z,0.25
2022-09-05T03:57:05.817Z,1.00
2022-09-05T03:57:07.377Z,0.00
2022-09-05T03:57:08.253Z,0.50
2022-09-05T03:57:11.774Z,0.00
2022-09-05T03:57:15.841Z,0.00
2022-09-05T03:57:23.217Z,0.00
2022-09-05T03:57:27.025Z,0.00
2022-09-05T03:58:31.914Z,0.00
2022-09-05T03:59:12.622Z,0.00
2022-09-05T04:00:34.673Z,0.67
2022-09-05T04:03:00.036Z,1.00
2022-09-05T04:08:07.370Z,1.00
2022-09-05T04:08:10.294Z,0.62
2022-09-05T04:08:15.725Z,1.00
2022-09-05T04:08:17.178Z,0.50
2022-09-05T04:08:18.857Z,0.88
2022-09-05T04:08:32.326Z,0.50
2022-09-05T04:09:37.188Z,0.00
2022-09-05T04:10:39.629Z,0.25
2022-09-05T04:11:42.918Z,0.88
2022-09-05T04:12:46.205Z,1.00
2022-09-05T04:13:55.731Z,0.43
2022-09-05T04:14:58.878Z,1.50
2022-09-05T04:16:01.992Z,1.14
2022-09-05T04:17:04.865Z,0.86
2022-09-05T04:18:09.380Z,1.00
2022-09-05T04:19:12.561Z,0.57
2022-09-05T04:20:15.744Z,0.67
2022-09-05T04:21:22.308Z,0.00
2022-09-05T04:22:25.894Z,0.00
2022-09-05T04:23:35.051Z,0.86
2022-09-05T04:24:39.615Z,1.50
2022-09-05T04:25:42.519Z,1.00
2022-09-05T04:26:45.690Z,1.00
2022-09-05T04:27:48.928Z,1.33
2022-09-05T04:28:55.107Z,1.67
2022-09-05T04:29:58.309Z,0.50
2022-09-05T04:31:01.590Z,0.00
2022-09-05T04:32:17.588Z,0.00
2022-09-05T04:33:37.024Z,1.12
2022-09-05T04:34:32.229Z,1.87
2022-09-05T04:35:35.514Z,1.50
2022-09-05T04:36:38.773Z,0.57
2022-09-05T04:37:48.652Z,0.43
2022-09-05T04:38:46.763Z,1.50
2022-09-05T04:39:49.927Z,1.00
2022-09-05T04:40:53.479Z,0.71
2022-09-05T04:41:56.962Z,0.57
2022-09-05T04:43:00.448Z,1.00
2022-09-05T04:44:04.159Z,1.00
2022-09-05T04:45:07.332Z,1.00
2022-09-05T04:46:10.631Z,0.57
2022-09-05T04:47:15.663Z,0.00
2022-09-05T04:48:21.422Z,0.00
2022-09-05T04:49:24.277Z,0.50
2022-09-05T04:50:26.820Z,1.00
2022-09-05T04:51:31.806Z,0.00
2022-09-05T04:52:35.434Z,0.50
2022-09-05T04:53:38.722Z,1.00
2022-09-05T04:54:42.209Z,0.00
2022-09-05T04:55:50.826Z,0.43
2022-09-05T04:56:49.987Z,0.50
2022-09-05T04:57:53.296Z,0.00
2022-09-05T05:01:16.026Z,0.43
2022-09-05T05:04:59.478Z,0.50
2022-09-05T05:06:02.167Z,0.50
2022-09-05T05:06:03.645Z,0.50
2022-09-05T05:06:13.322Z,0.50
2022-09-05T05:06:17.935Z,1.50
2022-09-05T05:06:22.768Z,0.00
2022-09-05T05:06:44.015Z,1.50
2022-09-05T05:07:31.443Z,1.50
2022-09-05T05:08:39.102Z,2.00
2022-09-05T05:09:38.995Z,1.50
2022-09-05T05:12:08.860Z,0.57
2022-09-05T05:18:01.445Z,0.50
2022-09-05T05:18:02.813Z,0.50
2022-09-05T05:18:03.637Z,0.00
2022-09-05T05:18:06.877Z,0.50
2022-09-05T05:18:12.355Z,0.13
2022-09-05T05:18:15.633Z,0.00
2022-09-05T05:18:36.421Z,0.50
2022-09-05T05:19:21.583Z,1.00
2022-09-05T05:21:45.071Z,0.00
2022-09-05T05:22:49.586Z,1.00
2022-09-05T05:23:54.097Z,0.00
2022-09-05T05:25:09.671Z,0.00
2022-09-05T05:26:12.950Z,0.50
2022-09-05T05:27:18.903Z,0.00
2022-09-05T05:28:31.603Z,0.50
2022-09-05T05:29:40.624Z,1.50
2022-09-05T05:30:44.420Z,1.00
2022-09-05T05:31:47.676Z,0.43
2022-09-05T05:34:24.151Z,0.00
2022-09-05T05:35:14.249Z,1.00
2022-09-05T05:36:17.640Z,1.00
2022-09-05T05:37:21.341Z,1.00
2022-09-05T05:38:30.553Z,1.00
2022-09-05T05:39:34.288Z,0.62
2022-09-05T05:40:41.260Z,1.50
2022-09-05T05:41:42.041Z,2.00
2022-09-05T05:42:45.226Z,0.57
2022-09-05T05:43:48.614Z,0.43
2022-09-05T05:44:53.868Z,0.29
2022-09-05T05:45:56.242Z,0.00
2022-09-05T05:46:59.385Z,0.43
2022-09-05T05:48:02.669Z,1.00
2022-09-05T05:49:05.953Z,1.00
2022-09-05T05:50:11.292Z,0.57
2022-09-05T05:51:13.550Z,0.00
2022-09-05T05:52:16.697Z,0.00
2022-09-05T05:53:33.605Z,0.33
2022-09-05T05:54:24.319Z,1.37
2022-09-05T05:55:51.886Z,1.00
2022-09-05T05:57:51.066Z,1.00
2022-09-05T05:58:54.658Z,1.00
2022-09-05T05:59:58.254Z,0.57
2022-09-05T06:01:02.867Z,0.25
2022-09-05T06:02:06.525Z,1.00
2022-09-05T06:03:26.865Z,0.88
2022-09-05T06:04:14.464Z,0.50
2022-09-05T06:05:18.266Z,1.43
2022-09-05T06:06:21.335Z,2.00
2022-09-05T06:07:24.618Z,1.57
2022-09-05T06:11:00.962Z,1.43
2022-09-05T06:12:53.617Z,3.00
2022-09-05T06:14:49.251Z,2.50
2022-09-05T06:14:56.458Z,1.00
2022-09-05T06:14:59.033Z,1.50
2022-09-05T06:15:02.059Z,1.50
2022-09-05T06:15:10.473Z,1.00
2022-09-05T06:16:06.301Z,0.50
2022-09-05T06:17:06.158Z,0.50
2022-09-05T06:18:12.212Z,1.00
2022-09-05T06:19:34.191Z,0.75
2022-09-05T06:22:09.577Z,0.75
2022-09-05T06:22:11.030Z,1.00
2022-09-05T06:22:41.221Z,1.00
2022-09-05T06:25:17.203Z,0.88
2022-09-05T06:26:16.569Z,0.00
2022-09-05T06:27:19.752Z,1.00
2022-09-05T06:28:23.133Z,1.43
2022-09-05T06:29:38.092Z,1.14
2022-09-05T06:30:33.801Z,0.50
2022-09-05T06:31:37.138Z,1.00
2022-09-05T06:32:43.129Z,0.86
2022-09-05T06:33:47.650Z,0.50
2022-09-05T06:34:59.800Z,0.75
2022-09-05T06:36:04.608Z,1.50
2022-09-05T06:37:05.894Z,1.00
2022-09-05T06:38:09.087Z,0.43
2022-09-05T06:39:12.257Z,0.57
2022-09-05T06:40:15.558Z,0.17
2022-09-05T06:41:18.688Z,0.57
2022-09-05T06:42:42.053Z,0.33
2022-09-05T06:43:26.437Z,1.00
2022-09-05T06:44:29.707Z,1.00
2022-09-05T06:45:33.092Z,0.57
2022-09-05T06:46:54.541Z,0.67
2022-09-05T06:47:40.661Z,1.00
2022-09-05T06:49:12.343Z,0.43
2022-09-05T06:49:48.337Z,0.50
2022-09-05T06:51:06.872Z,0.43
2022-09-05T06:52:04.178Z,0.50
2022-09-05T06:53:08.276Z,0.50
2022-09-05T06:54:05.310Z,1.75
2022-09-05T06:55:08.695Z,3.00
2022-09-05T06:56:11.874Z,2.14
2022-09-05T06:57:16.280Z,0.50
2022-09-05T06:58:19.485Z,0.43
2022-09-05T06:59:22.751Z,1.00
2022-09-05T07:00:26.153Z,1.43
2022-09-05T07:01:59.653Z,2.00
2022-09-05T07:02:59.331Z,1.50
2022-09-05T07:03:38.041Z,1.25
2022-09-05T07:05:23.683Z,0.75
2022-09-05T07:05:46.553Z,1.50
2022-09-05T07:07:01.339Z,2.29
2022-09-05T07:07:54.247Z,2.00
2022-09-05T07:08:57.858Z,0.57
2022-09-05T07:10:12.115Z,0.50
2022-09-05T07:11:15.804Z,1.50
2022-09-05T07:12:11.168Z,1.50
2022-09-05T07:13:14.667Z,1.00
2022-09-05T07:14:17.947Z,1.00
2022-09-05T07:15:21.437Z,1.43
2022-09-05T07:16:37.139Z,2.00
2022-09-05T07:17:29.641Z,1.50
2022-09-05T07:18:32.928Z,2.00
2022-09-05T07:19:37.130Z,1.71
2022-09-05T07:21:12.202Z,2.50
2022-09-05T07:21:45.459Z,3.50
2022-09-05T07:22:49.862Z,2.50
2022-09-05T07:24:06.423Z,1.86
2022-09-05T07:24:57.958Z,2.75
2022-09-05T07:26:01.272Z,2.14
2022-09-05T07:27:05.509Z,1.87
2022-09-05T07:28:29.428Z,2.00
2022-09-05T07:29:14.873Z,1.00
2022-09-05T07:30:18.063Z,1.86
2022-09-05T07:31:33.632Z,2.57
2022-09-05T07:32:25.919Z,2.00
2022-09-05T07:33:29.246Z,1.67
2022-09-05T07:34:32.455Z,0.86
2022-09-05T07:35:41.993Z,1.67
2022-09-05T07:36:40.325Z,2.87
2022-09-05T07:37:43.822Z,1.57
2022-09-05T07:38:54.959Z,3.43
2022-09-05T07:39:52.266Z,3.00
2022-09-05T07:40:55.816Z,2.00
2022-09-05T07:41:59.522Z,2.43
2022-09-05T07:43:10.073Z,3.00
2022-09-05T07:44:07.311Z,1.62
2022-09-05T07:45:10.900Z,1.00
2022-09-05T07:46:14.522Z,1.57
2022-09-05T07:47:17.731Z,1.00
2022-09-05T07:48:22.362Z,0.67
2022-09-05T07:49:25.173Z,1.00
2022-09-05T07:54:07.370Z,1.83
2022-09-05T07:56:51.538Z,1.37
2022-09-05T07:57:00.084Z,2.50
2022-09-05T07:57:01.152Z,2.50
2022-09-05T07:57:10.065Z,1.37
2022-09-05T07:57:10.366Z,1.00
2022-09-05T07:58:02.089Z,2.00
2022-09-05T07:59:05.477Z,1.00
2022-09-05T08:00:24.648Z,0.86
2022-09-05T08:01:13.745Z,1.62
2022-09-05T08:02:17.204Z,2.14
2022-09-05T08:03:20.613Z,1.86
2022-09-05T08:04:23.951Z,2.57
2022-09-05T08:05:39.655Z,3.00
2022-09-05T08:07:45.486Z,3.87
2022-09-05T08:07:51.701Z,2.50
2022-09-05T08:09:18.128Z,2.12
2022-09-05T08:10:06.382Z,2.00
2022-09-05T08:11:23.914Z,2.50
2022-09-05T08:12:09.953Z,2.75
2022-09-05T08:13:23.992Z,2.00
2022-09-05T08:14:43.561Z,1.37
2022-09-05T08:15:23.761Z,1.50
2022-09-05T08:16:39.125Z,1.00
2022-09-05T08:17:42.576Z,0.00
2022-09-05T08:18:46.103Z,0.43
2022-09-05T08:19:49.347Z,1.50
2022-09-05T08:20:52.349Z,1.71
2022-09-05T08:21:55.813Z,1.33
2022-09-05T08:22:59.303Z,0.86
2022-09-05T08:24:12.893Z,2.29
2022-09-05T08:25:07.311Z,2.50
2022-09-05T08:26:10.396Z,1.86
2022-09-05T08:27:16.418Z,1.86
2022-09-05T08:28:18.282Z,1.50
2022-09-05T08:29:21.877Z,1.57
2022-09-05T08:30:27.885Z,1.43
2022-09-05T08:31:29.823Z,1.50
2022-09-05T08:32:35.363Z,1.00
2022-09-05T08:33:37.470Z,1.00
2022-09-05T08:34:44.987Z,2.14
2022-09-05T08:35:45.778Z,2.50
2022-09-05T08:36:48.868Z,2.43
2022-09-05T08:37:52.348Z,2.14
2022-09-05T08:38:55.937Z,0.86
2022-09-05T08:40:11.597Z,1.57
2022-09-05T08:41:03.843Z,1.50
2022-09-05T08:42:07.120Z,2.00
2022-09-05T08:45:58.566Z,2.33
2022-09-05T08:46:37.385Z,3.50
2022-09-05T08:46:47.035Z,3.00
2022-09-05T08:46:47.130Z,1.50
2022-09-05T08:48:47.409Z,1.00
2022-09-05T08:49:59.924Z,2.00
2022-09-05T08:51:03.447Z,2.00
2022-09-05T08:52:06.643Z,1.29
2022-09-05T08:53:26.344Z,2.00
2022-09-05T08:54:14.685Z,0.50
2022-09-05T08:55:18.039Z,0.43
2022-09-05T08:56:21.256Z,1.00
2022-09-05T08:57:24.609Z,1.67
2022-09-05T08:58:27.728Z,1.14
2022-09-05T08:59:33.024Z,1.57
2022-09-05T09:00:35.157Z,1.50
2022-09-05T09:02:14.470Z,2.86
2022-09-05T09:02:47.208Z,3.50
2022-09-05T09:03:52.157Z,2.25
2022-09-05T09:05:02.511Z,1.00
2022-09-05T09:06:15.151Z,3.00
2022-09-05T09:07:46.437Z,2.50
2022-09-05T09:08:08.244Z,1.50
2022-09-05T09:09:11.519Z,0.57
2022-09-05T09:10:25.666Z,0.43
2022-09-05T09:11:19.123Z,2.50
2022-09-05T09:12:22.393Z,2.00
2022-09-05T09:13:25.736Z,1.43
2022-09-05T09:14:30.905Z,1.86
2022-09-05T09:15:33.280Z,2.50
2022-09-05T09:16:36.683Z,2.14
2022-09-05T09:17:39.948Z,1.00
2022-09-05T09:18:43.340Z,1.43
2022-09-05T09:19:46.507Z,2.43
2022-09-05T09:20:49.899Z,4.14
2022-09-05T09:23:32.661Z,1.00
2022-09-05T09:24:22.699Z,1.25
2022-09-05T09:25:27.244Z,1.57
2022-09-05T09:26:30.383Z,1.00
2022-09-05T09:28:45.149Z,0.71
2022-09-05T09:28:50.436Z,1.50
2022-09-05T09:29:42.937Z,3.50
2022-09-05T09:30:46.151Z,2.14
2022-09-05T09:31:50.647Z,1.87
2022-09-05T09:32:57.562Z,3.29
2022-09-05T09:33:58.594Z,3.50
2022-09-05T09:35:06.149Z,3.29
2022-09-05T09:36:08.146Z,3.50
2022-09-05T09:37:11.624Z,2.00
2022-09-05T09:38:14.905Z,1.86
2022-09-05T09:39:37.629Z,3.00
2022-09-05T09:40:22.794Z,2.62
2022-09-05T09:41:26.196Z,3.00
2022-09-05T09:42:32.607Z,1.86
2022-09-05T09:43:33.784Z,1.75
2022-09-05T09:44:40.345Z,2.29
2022-09-05T09:45:43.834Z,2.25
2022-09-05T09:46:47.136Z,1.00
2022-09-05T09:47:50.508Z,1.43
2022-09-05T09:48:55.017Z,1.87
2022-09-05T09:49:58.516Z,1.00
2022-09-05T09:51:01.909Z,1.00
2022-09-05T09:52:05.280Z,1.86
2022-09-05T09:53:08.771Z,2.57
2022-09-05T09:54:12.055Z,1.86
2022-09-05T09:55:20.935Z,1.00
2022-09-05T09:56:19.665Z,1.75
2022-09-05T09:57:22.929Z,2.00
2022-09-05T09:58:26.507Z,2.43
2022-09-05T09:59:30.009Z,3.12
2022-09-05T10:00:33.191Z,3.33
2022-09-05T10:01:37.311Z,1.33
2022-09-05T10:05:28.804Z,2.00
2022-09-05T10:08:57.357Z,1.44
2022-09-05T10:10:35.250Z,1.00
2022-09-05T10:10:39.520Z,1.62
2022-09-05T10:10:46.648Z,1.50
2022-09-05T10:10:49.032Z,1.50
2022-09-05T10:10:51.890Z,2.00
2022-09-05T10:10:55.578Z,2.00
2022-09-05T10:11:49.978Z,2.00
2022-09-05T10:12:20.289Z,2.50
2022-09-05T10:14:49.868Z,2.00
2022-09-05T10:17:05.361Z,4.00
2022-09-05T10:18:12.640Z,2.00
2022-09-05T10:19:15.770Z,3.25
2022-09-05T10:20:18.749Z,2.29
2022-09-05T10:21:21.733Z,1.33
2022-09-05T10:22:39.836Z,2.57
2022-09-05T10:23:38.174Z,2.50
2022-09-05T10:24:42.481Z,2.50
2022-09-05T10:25:45.539Z,1.33
2022-09-05T10:26:48.745Z,1.43
2022-09-05T10:27:51.948Z,2.43
2022-09-05T10:30:19.798Z,2.00
2022-09-05T10:33:14.014Z,2.00
2022-09-05T10:34:49.088Z,1.87
2022-09-05T10:35:08.451Z,2.12
2022-09-05T10:35:14.385Z,2.00
2022-09-05T10:35:38.877Z,1.62
2022-09-05T10:36:44.707Z,1.57
2022-09-05T10:37:47.903Z,1.37
2022-09-05T10:38:54.046Z,2.14
2022-09-05T10:39:57.397Z,2.00
2022-09-05T10:41:20.789Z,2.57
2022-09-05T10:42:05.235Z,1.22
2022-09-05T10:44:26.984Z,2.50
2022-09-05T10:45:33.451Z,2.57
2022-09-05T10:46:50.248Z,2.12
2022-09-05T10:47:38.866Z,1.00
2022-09-05T10:48:42.058Z,0.43
2022-09-05T10:49:45.445Z,1.29
2022-09-05T10:50:48.622Z,1.43
2022-09-05T10:51:52.272Z,1.86
2022-09-05T10:52:55.394Z,2.00
2022-09-05T10:54:01.331Z,2.00
2022-09-05T10:55:13.676Z,1.62
2022-09-05T10:56:17.942Z,1.50
2022-09-05T10:57:21.123Z,2.50
2022-09-05T10:58:30.403Z,2.29
2022-09-05T11:02:21.647Z,0.50
2022-09-05T11:02:22.124Z,1.25
2022-09-05T11:02:26.177Z,4.25
2022-09-05T11:02:57.821Z,3.50
2022-09-05T11:03:58.597Z,2.50
2022-09-05T11:05:02.083Z,3.14
2022-09-05T11:06:08.834Z,1.86
2022-09-05T11:07:10.046Z,1.75
2022-09-05T11:08:13.518Z,1.71
2022-09-05T11:09:17.016Z,0.86
2022-09-05T11:10:20.295Z,1.29
2022-09-05T11:11:28.340Z,2.57
2022-09-05T11:12:27.888Z,1.62
2022-09-05T11:13:30.966Z,0.57
2022-09-05T11:14:34.059Z,1.43
2022-09-05T11:15:37.124Z,2.67
2022-09-05T11:16:41.828Z,1.50
2022-09-05T11:17:45.430Z,1.14
2022-09-05T11:18:56.008Z,2.14
2022-09-05T11:19:53.539Z,2.12
2022-09-05T11:20:59.993Z,3.00
2022-09-05T11:22:13.674Z,2.12
2022-09-05T11:23:10.434Z,0.88
2022-09-05T11:24:13.535Z,1.50
2022-09-05T11:25:16.818Z,2.33
2022-09-05T11:26:21.128Z,2.71
2022-09-05T11:27:26.006Z,1.67
2022-09-05T11:28:28.605Z,3.00
2022-09-05T11:29:31.707Z,2.67
2022-09-05T11:30:38.129Z,2.00
2022-09-05T11:32:27.008Z,1.50
2022-09-05T11:38:34.142Z,2.00
2022-09-05T11:38:43.971Z,2.50
2022-09-05T11:39:47.458Z,2.00
2022-09-05T11:39:55.486Z,2.50
2022-09-05T11:40:05.890Z,2.62
2022-09-05T11:40:07.645Z,2.00
2022-09-05T11:40:09.522Z,2.00
2022-09-05T11:40:28.269Z,1.50
2022-09-05T11:42:40.407Z,2.00
2022-09-05T11:43:47.467Z,1.87
2022-09-05T11:44:50.748Z,2.00
2022-09-05T11:45:54.062Z,3.83
2022-09-05T11:46:57.671Z,3.71
2022-09-05T11:48:01.942Z,2.50
2022-09-05T11:49:05.092Z,3.00
2022-09-05T11:50:09.262Z,3.33
2022-09-05T11:51:12.514Z,4.25
2022-09-05T11:52:15.752Z,3.67
2022-09-05T11:53:19.084Z,3.29
2022-09-05T11:54:22.262Z,3.86
2022-09-05T11:55:25.538Z,4.86
2022-09-05T11:56:28.716Z,5.57
2022-09-05T11:57:34.413Z,4.71
2022-09-05T11:58:44.102Z,4.50
2022-09-05T11:59:44.958Z,5.00
2022-09-05T12:00:45.339Z,3.75
2022-09-05T12:02:16.666Z,3.33
2022-09-05T12:03:08.575Z,3.50
2022-09-05T12:04:13.780Z,2.75
2022-09-05T12:05:49.386Z,3.00
2022-09-05T12:06:20.548Z,3.12
2022-09-05T12:07:31.642Z,1.71
2022-09-05T12:08:28.117Z,2.62
2022-09-05T12:09:32.298Z,3.50
2022-09-05T12:10:45.754Z,4.14
2022-09-05T12:11:40.095Z,3.75
2022-09-05T12:12:44.426Z,3.00
2022-09-05T12:13:47.585Z,3.14
2022-09-05T12:14:54.912Z,3.00
2022-09-05T12:16:08.294Z,4.50
2022-09-05T12:17:02.149Z,4.00
2022-09-05T12:18:12.622Z,3.00
2022-09-05T12:19:19.523Z,2.00
2022-09-05T12:20:17.121Z,4.00
2022-09-05T12:21:19.939Z,4.87
2022-09-05T12:22:23.969Z,4.00
2022-09-05T12:23:53.683Z,3.57
2022-09-05T12:25:24.145Z,4.50
2022-09-05T12:27:40.715Z,2.00
2022-09-05T12:27:43.217Z,4.00
2022-09-05T12:27:46.576Z,2.37
2022-09-05T12:29:34.001Z,2.00
2022-09-05T12:29:59.965Z,2.75
2022-09-05T12:32:44.545Z,3.50
2022-09-05T12:33:24.298Z,2.12
2022-09-05T12:36:03.592Z,1.62
2022-09-05T12:36:05.778Z,1.00
2022-09-05T12:38:44.303Z,2.00
2022-09-05T12:40:54.000Z,4.00
2022-09-05T12:40:55.040Z,2.87
2022-09-05T12:40:59.843Z,2.50
2022-09-05T12:41:00.927Z,2.50
2022-09-05T12:41:43.260Z,3.00
2022-09-05T12:44:38.062Z,4.00
2022-09-05T12:44:42.846Z,2.25
2022-09-05T12:45:37.074Z,0.88
2022-09-05T12:46:30.108Z,1.62
2022-09-05T12:47:33.294Z,3.00
2022-09-05T12:48:38.672Z,1.86
2022-09-05T12:49:41.112Z,1.50
2022-09-05T12:50:45.608Z,2.00
2022-09-05T12:51:49.193Z,2.43
2022-09-05T12:52:52.687Z,3.00
2022-09-05T12:53:56.683Z,3.00
2022-09-05T12:54:59.971Z,3.00
2022-09-05T12:58:07.460Z,2.86
2022-09-05T13:02:01.489Z,2.50
2022-09-05T13:02:23.682Z,2.37
2022-09-05T13:03:04.928Z,4.00
2022-09-05T13:03:06.314Z,5.50
2022-09-05T13:03:06.458Z,3.50
2022-09-05T13:03:07.995Z,3.00
2022-09-05T13:03:59.088Z,4.75
2022-09-05T13:04:51.294Z,4.37
2022-09-05T13:05:48.478Z,2.50
2022-09-05T13:06:51.616Z,2.43
2022-09-05T13:07:54.641Z,2.57
2022-09-05T13:08:59.437Z,3.33
2022-09-05T13:12:30.655Z,4.25
2022-09-05T13:14:48.132Z,3.00
2022-09-05T13:14:52.981Z,4.00
2022-09-05T13:14:55.051Z,2.00
2022-09-05T13:15:01.251Z,3.50
2022-09-05T13:15:27.333Z,3.62
2022-09-05T13:16:30.997Z,4.25
2022-09-05T13:17:34.329Z,3.50
2022-09-05T13:18:38.540Z,2.12
2022-09-05T13:19:41.932Z,1.57
2022-09-05T13:20:45.662Z,2.29
2022-09-05T13:21:49.108Z,4.25
2022-09-05T13:22:52.491Z,3.57
2022-09-05T13:23:56.086Z,2.57
2022-09-05T13:24:59.479Z,2.00
2022-09-05T13:26:02.870Z,1.57
2022-09-05T13:27:06.247Z,1.43
2022-09-05T13:28:09.743Z,2.43
2022-09-05T13:29:13.250Z,2.57
2022-09-05T13:34:16.151Z,2.57
2022-09-05T13:38:00.507Z,2.87
2022-09-05T13:38:03.241Z,1.12
2022-09-05T13:38:10.403Z,2.37
2022-09-05T13:38:10.677Z,1.37
2022-09-05T13:38:12.203Z,1.62
2022-09-05T13:38:19.753Z,2.00
2022-09-05T13:38:21.042Z,2.50
2022-09-05T13:38:52.783Z,2.50
2022-09-05T13:39:56.848Z,2.75
2022-09-05T13:41:03.176Z,1.71
2022-09-05T13:42:09.127Z,1.37
2022-09-05T13:43:15.282Z,2.12
2022-09-05T13:44:26.246Z,2.00
2022-09-05T13:45:23.171Z,2.00
2022-09-05T13:46:26.279Z,2.00
2022-09-05T13:47:30.666Z,2.17
2022-09-05T13:49:24.203Z,3.37
2022-09-05T13:49:38.484Z,1.50
2022-09-05T13:50:42.161Z,0.86
2022-09-05T13:51:45.644Z,2.00
2022-09-05T13:52:49.233Z,2.00
2022-09-05T13:53:53.033Z,2.12
2022-09-05T13:54:56.416Z,2.00
2022-09-05T13:56:03.158Z,1.57
2022-09-05T13:57:04.213Z,1.00
2022-09-05T13:58:07.616Z,1.14
2022-09-05T13:59:10.782Z,1.57
2022-09-05T14:00:27.840Z,1.86
2022-09-05T14:01:21.771Z,1.62
2022-09-05T14:02:27.135Z,1.43
2022-09-05T14:03:32.016Z,1.50
2022-09-05T14:05:38.428Z,1.00
2022-09-05T14:06:47.556Z,0.86
2022-09-05T14:07:46.258Z,0.50
2022-09-05T14:09:35.144Z,1.43
2022-09-05T14:09:53.979Z,2.87
2022-09-05T14:10:57.021Z,3.00
2022-09-05T14:12:00.049Z,2.67
2022-09-05T14:13:03.213Z,2.00
2022-09-05T14:14:11.132Z,1.43
2022-09-05T14:15:11.324Z,1.50
2022-09-05T14:16:15.124Z,3.00
2022-09-05T14:18:22.643Z,1.00
2022-09-05T14:19:25.879Z,1.86
2022-09-05T14:20:29.169Z,3.00
2022-09-05T14:21:32.225Z,2.14
2022-09-05T14:22:35.205Z,1.33
2022-09-05T14:23:39.340Z,1.14
2022-09-05T14:24:42.527Z,1.00
2022-09-05T14:25:47.029Z,1.00
2022-09-05T14:26:50.170Z,1.43
2022-09-05T14:27:53.167Z,2.67
2022-09-05T14:28:56.358Z,2.71
2022-09-05T14:29:59.544Z,1.86
2022-09-05T14:32:33.954Z,3.00
2022-09-05T14:37:35.955Z,3.00
2022-09-05T14:37:43.661Z,1.50
2022-09-05T14:37:50.390Z,2.00
2022-09-05T14:37:54.943Z,1.00
2022-09-05T14:37:55.238Z,0.88
2022-09-05T14:37:55.342Z,1.50
2022-09-05T14:38:46.617Z,2.00
2022-09-05T14:40:26.206Z,3.50
2022-09-05T14:41:15.040Z,3.00
2022-09-05T14:42:30.555Z,2.00
2022-09-05T14:43:33.743Z,1.00
2022-09-05T14:44:37.837Z,1.86
2022-09-05T14:45:41.261Z,2.00
2022-09-05T14:46:44.667Z,2.00
2022-09-05T14:47:47.893Z,2.00
2022-09-05T14:48:53.524Z,3.00
2022-09-05T14:49:55.838Z,3.37
2022-09-05T14:50:59.700Z,2.00
2022-09-05T14:52:14.961Z,2.00